createdAt,value
2023-05-07T00:01:20.107Z,12.25
2023-05-07T00:03:46.965Z,14.55
2023-05-07T00:06:13.949Z,15.90
2023-05-07T00:08:40.382Z,16.05
2023-05-07T00:11:07.009Z,14.82
2023-05-07T00:13:36.262Z,15.23
2023-05-07T00:16:04.174Z,15.75
2023-05-07T00:18:30.780Z,14.48
2023-05-07T00:20:57.357Z,17.55
2023-05-07T00:23:24.236Z,15.93
2023-05-07T00:25:50.655Z,14.82
2023-05-07T00:28:17.079Z,14.32
2023-05-07T00:30:43.602Z,16.13
2023-05-07T00:33:10.145Z,15.38
2023-05-07T00:35:36.610Z,15.90
2023-05-07T00:38:03.115Z,15.80
2023-05-07T00:40:29.567Z,15.18
2023-05-07T00:42:59.124Z,16.65
2023-05-07T00:45:29.856Z,18.90
2023-05-07T00:47:59.265Z,15.80
2023-05-07T00:50:27.593Z,15.95
2023-05-07T00:52:54.545Z,17.17
2023-05-07T00:55:21.264Z,17.52
2023-05-07T00:57:47.812Z,21.33
2023-05-07T01:00:14.819Z,17.33
2023-05-07T01:02:42.029Z,15.80
2023-05-07T01:05:12.451Z,19.42
2023-05-07T01:07:41.625Z,17.42
2023-05-07T01:10:09.988Z,19.20
2023-05-07T01:12:38.571Z,18.77
2023-05-07T01:15:06.564Z,16.70
2023-05-07T01:17:37.527Z,18.80
2023-05-07T01:20:05.994Z,16.13
2023-05-07T01:22:34.609Z,17.05
2023-05-07T01:25:02.570Z,18.80
2023-05-07T01:27:29.192Z,19.77
2023-05-07T01:29:56.569Z,18.55
2023-05-07T01:32:30.109Z,16.77
2023-05-07T01:34:58.479Z,18.63
2023-05-07T01:37:26.519Z,19.20
2023-05-07T01:39:54.139Z,17.95
2023-05-07T01:42:20.815Z,17.35
2023-05-07T01:44:47.425Z,19.90
2023-05-07T01:47:15.113Z,17.10
2023-05-07T01:49:43.060Z,17.45
2023-05-07T01:52:11.655Z,20.20
2023-05-07T01:54:38.391Z,17.25
2023-05-07T01:57:04.766Z,17.15
2023-05-07T01:59:31.201Z,22.23
2023-05-07T02:01:57.604Z,19.70
2023-05-07T02:04:24.246Z,21.23
2023-05-07T02:06:50.878Z,18.65
2023-05-07T02:09:18.716Z,18.58
2023-05-07T02:11:45.369Z,19.77
2023-05-07T02:14:12.026Z,20.67
2023-05-07T02:16:38.476Z,22.30
2023-05-07T02:19:04.872Z,20.10
2023-05-07T02:21:31.381Z,19.83
2023-05-07T02:23:57.859Z,18.92
2023-05-07T02:26:24.206Z,23.05
2023-05-07T02:28:50.734Z,20.98
2023-05-07T02:31:17.139Z,21.05
2023-05-07T02:33:43.609Z,22.23
2023-05-07T02:36:10.963Z,18.02
2023-05-07T02:38:37.722Z,20.40
2023-05-07T02:41:04.245Z,20.95
2023-05-07T02:43:30.668Z,18.40
2023-05-07T02:46:03.928Z,21.80
2023-05-07T02:48:30.513Z,22.70
2023-05-07T02:50:56.929Z,18.88
2023-05-07T02:53:23.460Z,23.88
2023-05-07T02:55:49.990Z,19.52
2023-05-07T02:58:16.428Z,19.92
2023-05-07T03:00:42.894Z,22.50
2023-05-07T03:03:09.442Z,22.33
2023-05-07T03:05:36.033Z,19.48
2023-05-07T03:08:02.497Z,19.63
2023-05-07T03:10:28.935Z,22.08
2023-05-07T03:12:55.368Z,20.20
2023-05-07T03:15:22.636Z,21.00
2023-05-07T03:17:49.580Z,18.25
2023-05-07T03:20:16.370Z,21.92
2023-05-07T03:22:43.140Z,21.35
2023-05-07T03:25:10.317Z,19.90
2023-05-07T03:27:36.819Z,20.58
2023-05-07T03:30:03.871Z,22.38
2023-05-07T03:32:30.252Z,20.77
2023-05-07T03:34:56.810Z,22.75
2023-05-07T03:37:23.275Z,21.25
2023-05-07T03:39:49.632Z,25.42
2023-05-07T03:42:16.128Z,25.70
2023-05-07T03:44:42.558Z,20.10
2023-05-07T03:47:09.008Z,22.27
2023-05-07T03:49:35.781Z,23.33
2023-05-07T03:52:02.284Z,22.42
2023-05-07T03:54:28.732Z,25.55
2023-05-07T03:56:55.245Z,23.40
2023-05-07T03:59:21.689Z,22.50
2023-05-07T04:01:48.159Z,22.70
2023-05-07T04:04:15.123Z,21.42
2023-05-07T04:06:42.150Z,19.58
2023-05-07T04:09:08.728Z,20.92
2023-05-07T04:11:36.957Z,22.05
2023-05-07T04:14:03.360Z,21.80
2023-05-07T04:16:29.810Z,21.23
2023-05-07T04:18:56.255Z,20.50
2023-05-07T04:21:22.666Z,21.02
2023-05-07T04:23:49.515Z,19.63
2023-05-07T04:26:16.928Z,22.55
2023-05-07T04:28:43.425Z,20.02
2023-05-07T04:31:09.948Z,21.42
2023-05-07T04:33:36.351Z,19.88
2023-05-07T04:36:04.882Z,23.30
2023-05-07T04:38:32.429Z,21.52
2023-05-07T04:41:03.799Z,21.05
2023-05-07T04:43:30.554Z,23.05
2023-05-07T04:45:56.957Z,21.90
2023-05-07T04:48:23.373Z,23.05
2023-05-07T04:50:50.833Z,21.58
2023-05-07T04:53:18.600Z,20.48
2023-05-07T04:55:46.166Z,20.85
2023-05-07T04:58:13.218Z,20.80
2023-05-07T05:00:40.271Z,21.75
2023-05-07T05:03:09.770Z,19.75
2023-05-07T05:05:36.313Z,22.02
2023-05-07T05:08:02.756Z,20.88
2023-05-07T05:10:29.191Z,21.67
2023-05-07T05:12:55.860Z,21.90
2023-05-07T05:15:22.566Z,19.17
2023-05-07T05:17:49.066Z,21.65
2023-05-07T05:20:15.843Z,20.83
2023-05-07T05:22:43.307Z,20.40
2023-05-07T05:25:10.045Z,21.52
2023-05-07T05:27:36.799Z,21.80
2023-05-07T05:30:04.252Z,20.40
2023-05-07T05:32:30.624Z,20.05
2023-05-07T05:34:57.026Z,21.63
2023-05-07T05:37:23.727Z,22.17
2023-05-07T05:39:50.260Z,19.83
2023-05-07T05:42:16.729Z,20.98
2023-05-07T05:44:43.074Z,20.90
2023-05-07T05:47:09.476Z,21.60
2023-05-07T05:49:36.126Z,24.15
2023-05-07T05:52:02.746Z,23.67
2023-05-07T05:54:29.210Z,21.42
2023-05-07T05:56:55.760Z,23.00
2023-05-07T05:59:22.298Z,24.63
2023-05-07T06:01:48.830Z,21.48
2023-05-07T06:04:15.183Z,23.05
2023-05-07T06:06:41.704Z,20.25
2023-05-07T06:09:08.097Z,22.80
2023-05-07T06:11:34.473Z,21.23
2023-05-07T06:14:01.193Z,21.42
2023-05-07T06:16:27.574Z,22.77
2023-05-07T06:18:54.033Z,20.60
2023-05-07T06:21:20.458Z,20.42
2023-05-07T06:23:46.796Z,20.77
2023-05-07T06:26:13.283Z,20.67
2023-05-07T06:28:39.651Z,19.90
2023-05-07T06:31:17.160Z,20.67
2023-05-07T06:33:45.268Z,19.65
2023-05-07T06:36:11.682Z,21.85
2023-05-07T06:38:38.072Z,23.10
2023-05-07T06:41:04.472Z,21.90
2023-05-07T06:43:30.812Z,20.65
2023-05-07T06:45:57.297Z,21.00
2023-05-07T06:48:23.849Z,21.67
2023-05-07T06:50:50.379Z,22.73
2023-05-07T06:53:16.811Z,23.90
2023-05-07T06:55:43.191Z,22.05
2023-05-07T06:58:09.608Z,21.52
2023-05-07T07:00:36.143Z,20.25
2023-05-07T07:03:02.579Z,18.63
2023-05-07T07:05:29.188Z,18.45
2023-05-07T07:07:55.731Z,20.50
2023-05-07T07:10:22.899Z,18.60
2023-05-07T07:12:50.375Z,19.08
2023-05-07T07:15:17.516Z,21.60
2023-05-07T07:17:44.005Z,19.25
2023-05-07T07:20:12.265Z,22.88
2023-05-07T07:22:38.810Z,21.08
2023-05-07T07:25:05.609Z,20.95
2023-05-07T07:27:32.020Z,17.95
2023-05-07T07:29:58.365Z,19.35
2023-05-07T07:32:24.926Z,19.75
2023-05-07T07:34:51.333Z,18.50
2023-05-07T07:37:17.846Z,18.48
2023-05-07T07:39:44.397Z,19.48
2023-05-07T07:42:10.791Z,17.88
2023-05-07T07:44:37.249Z,19.02
2023-05-07T07:47:03.813Z,20.10
2023-05-07T07:49:30.256Z,18.25
2023-05-07T07:51:59.567Z,16.95
2023-05-07T07:54:26.697Z,17.35
2023-05-07T07:56:53.277Z,19.95
2023-05-07T07:59:20.035Z,16.10
2023-05-07T08:01:46.535Z,17.25
2023-05-07T08:04:13.080Z,18.65
2023-05-07T08:06:39.696Z,16.73
2023-05-07T08:09:06.108Z,15.15
2023-05-07T08:11:32.510Z,16.98
2023-05-07T08:13:59.116Z,17.00
2023-05-07T08:16:26.047Z,17.42
2023-05-07T08:18:52.435Z,16.58
2023-05-07T08:21:18.852Z,18.10
2023-05-07T08:23:45.733Z,16.08
2023-05-07T08:26:12.271Z,16.17
2023-05-07T08:28:38.730Z,16.98
2023-05-07T08:31:05.270Z,16.20
2023-05-07T08:33:32.107Z,16.25
2023-05-07T08:35:58.532Z,15.60
2023-05-07T08:38:25.006Z,16.13
2023-05-07T08:40:51.418Z,14.90
2023-05-07T08:43:19.274Z,14.68
2023-05-07T08:45:46.854Z,15.05
2023-05-07T08:48:18.139Z,16.52
2023-05-07T08:50:44.608Z,14.38
2023-05-07T08:53:11.032Z,14.38
2023-05-07T08:55:37.474Z,15.48
2023-05-07T08:58:04.927Z,18.52
2023-05-07T09:00:31.398Z,16.40
2023-05-07T09:02:57.867Z,15.65
2023-05-07T09:05:24.373Z,14.45
2023-05-07T09:07:53.971Z,15.32
2023-05-07T09:10:22.022Z,14.02
2023-05-07T09:12:48.936Z,13.65
2023-05-07T09:15:15.594Z,16.35
2023-05-07T09:17:43.335Z,15.88
2023-05-07T09:20:11.061Z,13.23
2023-05-07T09:22:38.403Z,15.52
2023-05-07T09:25:06.986Z,11.02
2023-05-07T09:27:33.426Z,13.07
2023-05-07T09:29:59.843Z,12.98
2023-05-07T09:32:28.191Z,11.90
2023-05-07T09:34:55.184Z,12.50
2023-05-07T09:37:21.623Z,15.55
2023-05-07T09:39:50.102Z,12.00
2023-05-07T09:42:16.531Z,13.15
2023-05-07T09:44:48.333Z,10.48
2023-05-07T09:47:20.498Z,10.85
2023-05-07T09:49:49.014Z,9.90
2023-05-07T09:52:15.997Z,10.63
2023-05-07T09:54:46.135Z,10.48
2023-05-07T09:57:17.397Z,9.60
2023-05-07T09:59:44.908Z,11.02
2023-05-07T10:02:14.019Z,9.13
2023-05-07T10:04:41.419Z,9.48
2023-05-07T10:07:08.736Z,9.25
2023-05-07T10:09:39.361Z,10.05
2023-05-07T10:12:07.113Z,9.70
2023-05-07T10:14:34.596Z,9.20
2023-05-07T10:17:02.530Z,8.98
2023-05-07T10:19:30.404Z,8.15
2023-05-07T10:22:04.342Z,9.07
2023-05-07T10:24:34.997Z,9.27
2023-05-07T10:27:03.784Z,8.73
2023-05-07T10:30:04.063Z,8.60
2023-05-07T10:32:39.894Z,8.52
2023-05-07T10:35:12.498Z,7.88
2023-05-07T10:37:39.959Z,8.65
2023-05-07T10:40:08.322Z,7.43
2023-05-07T10:42:35.314Z,7.18
2023-05-07T10:45:17.941Z,8.30
2023-05-07T10:48:27.986Z,8.95
2023-05-07T10:51:20.789Z,8.88
2023-05-07T10:53:47.721Z,8.27
2023-05-07T10:56:21.487Z,7.90
2023-05-07T10:58:48.303Z,9.15
2023-05-07T11:01:15.992Z,9.07
2023-05-07T11:04:27.169Z,8.50
2023-05-07T11:07:12.237Z,7.55
2023-05-07T11:09:53.606Z,7.32
2023-05-07T11:12:38.576Z,7.18
2023-05-07T11:15:09.928Z,9.70
2023-05-07T11:17:54.215Z,8.48
2023-05-07T11:20:21.433Z,8.18
2023-05-07T11:22:48.703Z,6.57
2023-05-07T11:25:20.171Z,8.70
2023-05-07T11:27:46.901Z,7.65
2023-05-07T11:30:22.851Z,7.00
2023-05-07T11:35:16.703Z,7.38
2023-05-07T11:37:45.840Z,6.22
2023-05-07T11:40:14.732Z,6.82
2023-05-07T11:42:45.101Z,7.35
2023-05-07T11:45:11.967Z,6.95
2023-05-07T11:47:38.747Z,7.80
2023-05-07T11:50:08.302Z,7.60
2023-05-07T11:52:35.815Z,7.38
2023-05-07T11:55:04.505Z,5.90
2023-05-07T11:57:31.143Z,6.20
2023-05-07T11:59:59.302Z,6.80
2023-05-07T12:02:26.802Z,7.35
2023-05-07T12:04:54.113Z,7.25
2023-05-07T12:07:20.855Z,6.30
2023-05-07T12:09:48.326Z,6.78
2023-05-07T12:12:27.409Z,6.13
2023-05-07T12:14:53.769Z,6.57
2023-05-07T12:17:21.155Z,7.30
2023-05-07T12:19:57.335Z,6.35
2023-05-07T12:22:23.769Z,6.28
2023-05-07T12:24:57.612Z,5.80
2023-05-07T12:27:24.274Z,7.57
2023-05-07T12:29:51.829Z,5.50
2023-05-07T12:32:21.959Z,5.60
2023-05-07T12:34:51.970Z,5.50
2023-05-07T12:37:27.544Z,6.25
2023-05-07T12:40:08.580Z,7.78
2023-05-07T12:42:39.516Z,6.53
2023-05-07T12:45:14.301Z,6.45
2023-05-07T12:47:48.501Z,5.90
2023-05-07T12:50:16.517Z,6.05
2023-05-07T12:52:45.803Z,6.07
2023-05-07T12:55:15.412Z,6.95
2023-05-07T12:57:49.520Z,5.82
2023-05-07T13:00:16.273Z,5.68
2023-05-07T13:02:47.609Z,5.68
2023-05-07T13:05:14.454Z,5.93
2023-05-07T13:07:41.754Z,5.60
2023-05-07T13:10:08.938Z,4.70
2023-05-07T13:12:35.975Z,7.25
2023-05-07T13:15:02.404Z,4.85
2023-05-07T13:17:28.851Z,4.43
2023-05-07T13:19:55.299Z,6.57
2023-05-07T13:22:21.638Z,5.13
2023-05-07T13:24:48.097Z,5.00
2023-05-07T13:27:14.495Z,6.05
2023-05-07T13:29:40.906Z,4.75
2023-05-07T13:32:07.373Z,4.97
2023-05-07T13:34:34.248Z,6.53
2023-05-07T13:37:00.614Z,5.20
2023-05-07T13:39:27.118Z,5.15
2023-05-07T13:41:53.615Z,4.95
2023-05-07T13:44:19.949Z,5.55
2023-05-07T13:46:46.514Z,5.60
2023-05-07T13:49:13.865Z,4.70
2023-05-07T13:51:40.348Z,5.07
2023-05-07T13:54:06.814Z,4.53
2023-05-07T13:56:33.519Z,6.35
2023-05-07T13:59:00.998Z,7.43
2023-05-07T14:01:28.449Z,8.80
2023-05-07T14:03:55.141Z,5.35
2023-05-07T14:06:21.549Z,5.97
2023-05-07T14:08:47.997Z,5.18
2023-05-07T14:11:14.397Z,5.00
2023-05-07T14:13:41.053Z,3.90
2023-05-07T14:16:07.493Z,4.63
2023-05-07T14:18:35.428Z,6.95
2023-05-07T14:21:01.887Z,4.57
2023-05-07T14:23:28.702Z,4.72
2023-05-07T14:25:58.130Z,4.35
2023-05-07T14:28:24.927Z,4.15
2023-05-07T14:30:51.310Z,4.75
2023-05-07T14:33:18.119Z,4.97
2023-05-07T14:35:48.944Z,4.28
2023-05-07T14:38:16.553Z,4.60
2023-05-07T14:40:43.208Z,3.88
2023-05-07T14:43:09.594Z,3.88
2023-05-07T14:45:36.010Z,4.13
2023-05-07T14:48:02.932Z,5.57
2023-05-07T14:50:29.318Z,4.88
2023-05-07T14:52:55.864Z,4.72
2023-05-07T14:55:22.422Z,4.60
2023-05-07T14:57:48.847Z,4.30
2023-05-07T15:00:15.294Z,5.03
2023-05-07T15:02:41.749Z,4.18
2023-05-07T15:05:08.415Z,3.92
2023-05-07T15:07:35.310Z,4.57
2023-05-07T15:10:01.921Z,4.47
2023-05-07T15:12:28.365Z,4.82
2023-05-07T15:14:54.833Z,4.50
2023-05-07T15:17:21.254Z,4.78
2023-05-07T15:19:47.666Z,4.35
2023-05-07T15:22:14.091Z,3.95
2023-05-07T15:24:41.886Z,3.90
2023-05-07T15:27:08.238Z,4.05
2023-05-07T15:29:34.638Z,4.80
2023-05-07T15:32:01.109Z,4.07
2023-05-07T15:34:28.309Z,3.90
2023-05-07T15:36:57.682Z,3.90
2023-05-07T15:39:25.097Z,4.35
2023-05-07T15:41:51.685Z,4.07
2023-05-07T15:44:18.107Z,3.63
2023-05-07T15:46:44.492Z,4.32
2023-05-07T15:49:11.493Z,3.53
2023-05-07T15:51:37.936Z,4.38
2023-05-07T15:54:04.488Z,3.53
2023-05-07T15:56:33.886Z,3.35
2023-05-07T15:59:00.749Z,4.43
2023-05-07T16:01:27.181Z,3.22
2023-05-07T16:03:53.668Z,3.70
2023-05-07T16:06:20.166Z,3.42
2023-05-07T16:08:46.514Z,4.30
2023-05-07T16:11:12.896Z,5.25
2023-05-07T16:13:39.269Z,4.78
2023-05-07T16:16:06.397Z,3.90
2023-05-07T16:18:33.600Z,3.90
2023-05-07T16:21:00.964Z,7.57
2023-05-07T16:23:27.550Z,4.75
2023-05-07T16:25:53.955Z,4.38
2023-05-07T16:28:20.593Z,4.32
2023-05-07T16:30:47.085Z,5.18
2023-05-07T16:33:13.490Z,4.40
2023-05-07T16:35:40.042Z,4.68
2023-05-07T16:38:10.290Z,4.47
2023-05-07T16:40:40.287Z,4.03
2023-05-07T16:43:06.658Z,4.70
2023-05-07T16:45:33.046Z,5.78
2023-05-07T16:47:59.609Z,5.60
2023-05-07T16:50:26.083Z,5.20
2023-05-07T16:52:52.452Z,5.15
2023-05-07T16:55:18.858Z,6.25
2023-05-07T16:57:45.365Z,5.13
2023-05-07T17:00:12.350Z,7.10
2023-05-07T17:02:38.878Z,6.55
2023-05-07T17:05:08.479Z,5.22
2023-05-07T17:07:35.304Z,5.18
2023-05-07T17:10:02.729Z,6.95
2023-05-07T17:12:47.764Z,6.13
2023-05-07T17:15:14.396Z,5.85
2023-05-07T17:17:41.867Z,5.15
2023-05-07T17:20:08.885Z,6.03
2023-05-07T17:22:35.368Z,6.07
2023-05-07T17:25:04.118Z,5.32
2023-05-07T17:27:40.072Z,6.28
2023-05-07T17:32:35.037Z,5.10
2023-05-07T17:35:01.820Z,5.97
2023-05-07T17:37:28.243Z,5.82
2023-05-07T17:39:54.778Z,5.30
2023-05-07T17:42:21.280Z,6.05
2023-05-07T17:44:47.679Z,5.97
2023-05-07T17:47:14.431Z,6.00
2023-05-07T17:49:41.876Z,6.72
2023-05-07T17:52:08.853Z,7.13
2023-05-07T17:54:35.243Z,6.43
2023-05-07T17:57:01.670Z,6.22
2023-05-07T17:59:28.773Z,6.13
2023-05-07T18:01:55.342Z,5.80
2023-05-07T18:04:21.888Z,7.60
2023-05-07T18:06:48.591Z,6.55
2023-05-07T18:09:15.203Z,7.28
2023-05-07T18:11:41.636Z,6.75
2023-05-07T18:14:08.116Z,6.55
2023-05-07T18:16:34.702Z,7.28
2023-05-07T18:19:02.239Z,6.55
2023-05-07T18:21:28.705Z,6.40
2023-05-07T18:23:55.058Z,5.70
2023-05-07T18:26:21.572Z,5.80
2023-05-07T18:28:47.968Z,7.07
2023-05-07T18:31:14.484Z,6.45
2023-05-07T18:33:40.887Z,7.57
2023-05-07T18:36:07.299Z,7.30
2023-05-07T18:38:34.007Z,7.28
2023-05-07T18:41:02.809Z,6.63
2023-05-07T18:43:29.241Z,6.47
2023-05-07T18:45:55.683Z,7.35
2023-05-07T18:48:22.172Z,7.28
2023-05-07T18:50:49.261Z,7.97
2023-05-07T18:53:15.733Z,10.32
2023-05-07T18:55:42.172Z,10.98
2023-05-07T18:58:08.617Z,7.88
2023-05-07T19:00:35.084Z,7.93
2023-05-07T19:03:01.618Z,7.72
2023-05-07T19:05:28.111Z,10.65
2023-05-07T19:07:54.526Z,9.18
2023-05-07T19:10:21.259Z,8.30
2023-05-07T19:12:47.810Z,8.10
2023-05-07T19:15:14.368Z,9.25
2023-05-07T19:17:40.755Z,8.75
2023-05-07T19:22:39.327Z,8.57
2023-05-07T19:25:06.367Z,9.23
2023-05-07T19:27:32.712Z,9.07
2023-05-07T19:29:59.238Z,11.45
2023-05-07T19:32:26.198Z,8.27
2023-05-07T19:34:52.854Z,8.30
2023-05-07T19:37:22.838Z,10.45
2023-05-07T19:39:49.363Z,8.60
2023-05-07T19:42:15.918Z,11.13
2023-05-07T19:44:42.406Z,8.50
2023-05-07T19:47:09.385Z,8.85
2023-05-07T19:49:36.013Z,9.30
2023-05-07T19:52:02.657Z,11.98
2023-05-07T19:54:29.273Z,8.80
2023-05-07T19:56:56.841Z,8.85
2023-05-07T19:59:24.056Z,9.55
2023-05-07T20:01:50.587Z,8.65
2023-05-07T20:04:17.058Z,8.93
2023-05-07T20:06:43.501Z,10.93
2023-05-07T20:09:12.634Z,10.27
2023-05-07T20:11:39.795Z,9.35
2023-05-07T20:14:06.199Z,10.55
2023-05-07T20:16:33.630Z,9.65
2023-05-07T20:19:00.403Z,11.82
2023-05-07T20:21:26.858Z,9.40
2023-05-07T20:23:54.238Z,9.65
2023-05-07T20:26:21.262Z,12.48
2023-05-07T20:28:47.709Z,9.60
2023-05-07T20:31:14.263Z,10.77
2023-05-07T20:33:41.000Z,11.10
2023-05-07T20:36:08.213Z,14.48
2023-05-07T20:38:34.529Z,10.73
2023-05-07T20:41:12.609Z,10.02
2023-05-07T20:43:39.018Z,10.25
2023-05-07T20:46:07.553Z,10.30
2023-05-07T20:48:34.292Z,10.95
2023-05-07T20:51:01.843Z,10.75
2023-05-07T20:53:29.839Z,10.85
2023-05-07T20:55:56.887Z,11.98
2023-05-07T20:58:26.531Z,10.40
2023-05-07T21:00:53.752Z,11.43
2023-05-07T21:03:20.670Z,11.38
2023-05-07T21:05:54.154Z,10.35
2023-05-07T21:08:21.028Z,11.10
2023-05-07T21:10:47.866Z,10.70
2023-05-07T21:13:14.965Z,12.10
2023-05-07T21:15:42.914Z,11.13
2023-05-07T21:18:12.665Z,12.52
2023-05-07T21:20:39.143Z,11.57
2023-05-07T21:23:05.780Z,11.02
2023-05-07T21:25:32.243Z,11.23
2023-05-07T21:27:58.619Z,11.18
2023-05-07T21:30:25.388Z,10.90
2023-05-07T21:32:52.928Z,10.70
2023-05-07T21:35:19.664Z,12.10
2023-05-07T21:37:46.124Z,13.02
2023-05-07T21:40:13.162Z,11.73
2023-05-07T21:42:39.909Z,10.98
2023-05-07T21:45:06.766Z,12.38
2023-05-07T21:47:33.378Z,11.10
2023-05-07T21:50:00.981Z,11.13
2023-05-07T21:52:27.399Z,11.48
2023-05-07T21:54:53.952Z,10.88
2023-05-07T21:57:21.108Z,10.60
2023-05-07T21:59:47.598Z,12.27
2023-05-07T22:02:13.988Z,11.63
2023-05-07T22:04:40.473Z,11.55
2023-05-07T22:07:06.864Z,10.30
2023-05-07T22:09:33.245Z,11.20
2023-05-07T22:11:59.659Z,11.40
2023-05-07T22:14:26.102Z,10.85
2023-05-07T22:16:52.608Z,11.85
2023-05-07T22:19:19.093Z,11.05
2023-05-07T22:21:45.608Z,10.73
2023-05-07T22:24:12.548Z,12.02
2023-05-07T22:26:38.901Z,11.05
2023-05-07T22:29:05.353Z,10.48
2023-05-07T22:31:31.781Z,10.38
2023-05-07T22:33:58.302Z,12.52
2023-05-07T22:36:24.724Z,11.48
2023-05-07T22:38:51.160Z,11.55
2023-05-07T22:41:17.717Z,13.65
2023-05-07T22:43:44.135Z,11.10
2023-05-07T22:46:10.810Z,11.95
2023-05-07T22:48:37.301Z,10.68
2023-05-07T22:51:04.047Z,10.48
2023-05-07T22:53:30.894Z,11.00
2023-05-07T22:55:57.641Z,10.88
2023-05-07T22:58:24.195Z,10.25
2023-05-07T23:00:50.635Z,10.60
2023-05-07T23:03:17.049Z,9.68
2023-05-07T23:05:44.235Z,10.15
2023-05-07T23:08:11.362Z,10.38
2023-05-07T23:10:37.772Z,10.10
2023-05-07T23:13:04.350Z,10.40
2023-05-07T23:15:31.892Z,10.10
2023-05-07T23:17:58.333Z,11.25
2023-05-07T23:20:24.966Z,11.55
2023-05-07T23:22:51.379Z,10.40
2023-05-07T23:25:18.129Z,11.10
2023-05-07T23:27:44.555Z,10.55
2023-05-07T23:30:11.715Z,9.98
2023-05-07T23:32:38.347Z,9.75
2023-05-07T23:35:05.212Z,11.65
2023-05-07T23:37:31.637Z,11.52
2023-05-07T23:39:57.967Z,10.82
2023-05-07T23:42:24.408Z,9.68
2023-05-07T23:44:50.750Z,10.18
2023-05-07T23:47:17.589Z,9.70
2023-05-07T23:49:43.992Z,9.23
2023-05-07T23:52:10.457Z,9.68
2023-05-07T23:54:37.176Z,9.38
2023-05-07T23:57:04.462Z,10.32
2023-05-07T23:59:30.856Z,9.32
